Time;durP1;ratioP1;P1;durP2;ratioP2;P2;SDS_P1;SDS_P2;PMS_P1;PMS_P2;Temp;Humidity;BMP_temperature;BMP_pressure;BME280_temperature;BME280_humidity;BME280_pressure;Samples;Min_cycle;Max_cycle;Signal;HPM_P1;HPM_P2
2022/07/25 00:01:27;;;;;;;1.50;1.40;;;;;;;;;;5058654;27;94579;-62
2022/07/25 00:03:55;;;;;;;1.60;1.50;;;;;;;;;;5075908;27;92530;-61
2022/07/25 00:06:22;;;;;;;1.38;1.27;;;;;;;;;;5077345;27;95405;-62
2022/07/25 00:08:48;;;;;;;1.90;1.70;;;;;;;;;;5076923;27;94294;-62
2022/07/25 00:11:14;;;;;;;1.40;1.30;;;;;;;;;;5077359;27;92523;-61
2022/07/25 00:13:41;;;;;;;1.60;1.50;;;;;;;;;;5076827;27;93334;-62
2022/07/25 00:16:07;;;;;;;1.70;1.60;;;;;;;;;;5080120;27;94502;-62
2022/07/25 00:18:33;;;;;;;1.80;1.70;;;;;;;;;;5076634;27;93224;-61
2022/07/25 00:21:00;;;;;;;1.35;1.33;;;;;;;;;;5075096;27;96188;-61
2022/07/25 00:23:26;;;;;;;1.85;1.75;;;;;;;;;;5076860;27;92516;-62
2022/07/25 00:25:52;;;;;;;2.45;1.50;;;;;;;;;;5076372;27;92329;-61
2022/07/25 00:28:19;;;;;;;1.75;1.65;;;;;;;;;;5075910;27;93862;-61
2022/07/25 00:30:45;;;;;;;1.80;1.67;;;;;;;;;;5076376;27;92449;-62
2022/07/25 00:33:11;;;;;;;1.67;1.58;;;;;;;;;;5075976;27;93069;-61
2022/07/25 00:35:38;;;;;;;1.50;1.40;;;;;;;;;;5076239;27;93505;-61
2022/07/25 00:38:04;;;;;;;1.60;1.50;;;;;;;;;;5079046;27;91739;-62
2022/07/25 00:40:30;;;;;;;1.85;1.75;;;;;;;;;;5075938;27;93605;-61
2022/07/25 00:42:57;;;;;;;1.60;1.50;;;;;;;;;;5076596;27;92386;-61
2022/07/25 00:45:23;;;;;;;1.83;1.73;;;;;;;;;;5075312;27;94795;-61
2022/07/25 00:47:49;;;;;;;1.20;1.20;;;;;;;;;;5075753;27;93278;-62
2022/07/25 00:50:15;;;;;;;1.45;1.35;;;;;;;;;;5075920;27;92478;-62
2022/07/25 00:52:42;;;;;;;1.65;1.55;;;;;;;;;;5075987;27;93110;-61
2022/07/25 00:55:08;;;;;;;4.35;1.60;;;;;;;;;;5075674;27;92444;-61
2022/07/25 00:57:34;;;;;;;1.67;1.58;;;;;;;;;;5075696;27;92455;-61
2022/07/25 01:00:01;;;;;;;1.98;1.80;;;;;;;;;;5078567;27;93481;-61
2022/07/25 01:02:27;;;;;;;1.80;1.70;;;;;;;;;;5076337;27;91809;-61
2022/07/25 01:04:55;;;;;;;1.73;1.63;;;;;;;;;;5075954;27;92556;-61
2022/07/25 01:07:22;;;;;;;1.80;1.60;;;;;;;;;;5075175;27;93280;-62
2022/07/25 01:09:48;;;;;;;1.67;1.58;;;;;;;;;;5074233;27;94830;-61
2022/07/25 01:12:15;;;;;;;1.98;1.88;;;;;;;;;;5075505;27;95588;-61
2022/07/25 01:14:41;;;;;;;1.65;1.55;;;;;;;;;;5076121;27;94640;-61
2022/07/25 01:17:07;;;;;;;1.70;1.60;;;;;;;;;;5075961;27;92467;-61
2022/07/25 01:19:33;;;;;;;1.73;1.63;;;;;;;;;;5075645;27;93188;-61
2022/07/25 01:22:00;;;;;;;1.63;1.52;;;;;;;;;;5078331;27;93448;-61
2022/07/25 01:24:27;;;;;;;1.60;1.50;;;;;;;;;;5075657;27;93114;-61
2022/07/25 01:26:54;;;;;;;1.80;1.70;;;;;;;;;;5075582;27;92833;-62
2022/07/25 01:29:20;;;;;;;4.03;1.60;;;;;;;;;;5057269;27;92511;-61
2022/07/25 01:31:47;;;;;;;1.23;1.23;;;;;;;;;;5075607;27;93338;-62
2022/07/25 01:34:13;;;;;;;1.80;1.70;;;;;;;;;;5073419;27;95881;-61
2022/07/25 01:36:39;;;;;;;1.67;1.58;;;;;;;;;;5075220;27;92441;-62
2022/07/25 01:39:05;;;;;;;1.95;1.80;;;;;;;;;;5075425;27;94211;-62
2022/07/25 01:41:32;;;;;;;1.70;1.60;;;;;;;;;;5078107;27;93497;-61
2022/07/25 01:43:58;;;;;;;1.55;1.45;;;;;;;;;;5075121;27;93133;-61
2022/07/25 01:46:24;;;;;;;1.90;1.80;;;;;;;;;;5075789;27;95052;-61
2022/07/25 01:48:51;;;;;;;1.95;1.70;;;;;;;;;;5075173;27;92385;-61
2022/07/25 01:51:17;;;;;;;1.67;1.58;;;;;;;;;;5075780;27;93230;-61
2022/07/25 01:53:46;;;;;;;3.33;1.63;;;;;;;;;;5074649;27;93410;-61
2022/07/25 01:56:12;;;;;;;1.67;1.58;;;;;;;;;;5075243;27;92439;-61
2022/07/25 01:58:39;;;;;;;1.73;1.63;;;;;;;;;;5073427;27;94793;-61
2022/07/25 02:01:05;;;;;;;2.03;1.85;;;;;;;;;;5074768;27;93484;-61
2022/07/25 02:03:32;;;;;;;2.13;2.03;;;;;;;;;;5077830;27;92613;-61
2022/07/25 02:06:00;;;;;;;2.05;1.90;;;;;;;;;;5074715;27;93830;-61
2022/07/25 02:08:26;;;;;;;1.80;1.70;;;;;;;;;;5074987;27;92561;-61
2022/07/25 02:10:53;;;;;;;1.83;1.73;;;;;;;;;;5075419;27;94066;-61
2022/07/25 02:13:20;;;;;;;1.70;1.60;;;;;;;;;;5074478;27;93525;-61
2022/07/25 02:15:46;;;;;;;2.10;1.83;;;;;;;;;;5075892;27;91736;-61
2022/07/25 02:18:12;;;;;;;2.05;1.95;;;;;;;;;;5074757;27;92639;-62
2022/07/25 02:20:39;;;;;;;1.77;1.67;;;;;;;;;;5077019;27;93298;-61
2022/07/25 02:23:05;;;;;;;2.83;1.70;;;;;;;;;;5076473;27;94874;-62
2022/07/25 02:25:31;;;;;;;2.10;2.00;;;;;;;;;;5081304;27;95679;-61
2022/07/25 02:27:58;;;;;;;1.90;1.80;;;;;;;;;;5078372;27;92619;-61
2022/07/25 02:30:25;;;;;;;2.55;2.10;;;;;;;;;;5078303;27;93479;-61
2022/07/25 02:32:51;;;;;;;1.67;1.58;;;;;;;;;;5078000;27;93444;-62
2022/07/25 02:35:17;;;;;;;2.10;2.00;;;;;;;;;;5078034;27;92489;-61
2022/07/25 02:37:44;;;;;;;3.58;1.83;;;;;;;;;;5077256;27;93438;-61
2022/07/25 02:40:11;;;;;;;2.22;2.05;;;;;;;;;;5078327;27;92871;-61
2022/07/25 02:42:37;;;;;;;2.15;2.03;;;;;;;;;;5078649;27;92381;-61
2022/07/25 02:45:04;;;;;;;2.20;2.00;;;;;;;;;;5078152;27;93177;-61
2022/07/25 02:47:30;;;;;;;2.08;1.98;;;;;;;;;;5079362;27;96311;-61
2022/07/25 02:49:56;;;;;;;1.85;1.75;;;;;;;;;;5077896;27;94303;-61
2022/07/25 02:52:22;;;;;;;2.78;2.10;;;;;;;;;;5077523;27;93520;-61
2022/07/25 02:54:49;;;;;;;2.08;1.92;;;;;;;;;;5077951;27;92502;-61
2022/07/25 02:57:15;;;;;;;2.05;1.95;;;;;;;;;;5078017;27;93313;-61
2022/07/25 02:59:42;;;;;;;2.08;1.88;;;;;;;;;;5077493;27;93537;-61
2022/07/25 03:02:08;;;;;;;2.00;1.90;;;;;;;;;;5077665;27;92443;-62
2022/07/25 03:04:34;;;;;;;2.20;2.10;;;;;;;;;;5077659;27;93227;-62
2022/07/25 03:07:01;;;;;;;2.10;2.00;;;;;;;;;;5077926;27;96385;-61
2022/07/25 03:09:27;;;;;;;2.10;2.00;;;;;;;;;;5080888;27;92562;-62
2022/07/25 03:11:53;;;;;;;2.42;2.22;;;;;;;;;;5075606;27;96103;-62
2022/07/25 03:14:20;;;;;;;2.30;2.10;;;;;;;;;;5077881;27;92444;-62
2022/07/25 03:16:46;;;;;;;2.67;2.42;;;;;;;;;;5078104;27;92791;-62
2022/07/25 03:19:13;;;;;;;2.00;1.90;;;;;;;;;;5077225;27;93819;-61
2022/07/25 03:21:39;;;;;;;2.15;1.95;;;;;;;;;;5077759;27;92420;-61
2022/07/25 03:24:05;;;;;;;2.28;2.17;;;;;;;;;;5077634;27;93031;-61
2022/07/25 03:26:32;;;;;;;2.00;1.90;;;;;;;;;;5077298;27;93423;-62
2022/07/25 03:28:58;;;;;;;2.95;2.30;;;;;;;;;;5077771;27;91705;-61
2022/07/25 03:31:25;;;;;;;2.22;1.88;;;;;;;;;;5079829;27;92433;-62
2022/07/25 03:33:51;;;;;;;2.13;1.92;;;;;;;;;;5059057;27;92402;-62
2022/07/25 03:36:18;;;;;;;2.28;2.08;;;;;;;;;;5075698;27;94795;-61
2022/07/25 03:38:44;;;;;;;2.25;1.95;;;;;;;;;;5076455;27;93936;-62
2022/07/25 03:41:11;;;;;;;2.00;1.90;;;;;;;;;;5077817;27;92623;-61
2022/07/25 03:43:37;;;;;;;3.28;2.30;;;;;;;;;;5077403;27;93576;-61
2022/07/25 03:46:03;;;;;;;3.95;2.00;;;;;;;;;;5077149;27;93449;-61
2022/07/25 03:48:30;;;;;;;2.30;2.20;;;;;;;;;;5076587;27;92443;-62
2022/07/25 03:50:56;;;;;;;2.50;2.30;;;;;;;;;;5080428;27;94218;-62
2022/07/25 03:53:22;;;;;;;2.10;1.92;;;;;;;;;;5077633;27;91780;-61
2022/07/25 03:55:49;;;;;;;2.55;2.35;;;;;;;;;;5076820;27;92479;-62
2022/07/25 03:58:15;;;;;;;2.60;2.40;;;;;;;;;;5076998;27;94128;-61
2022/07/25 04:00:41;;;;;;;2.45;2.25;;;;;;;;;;5075625;27;94752;-61
2022/07/25 04:03:08;;;;;;;2.70;2.50;;;;;;;;;;5076825;27;96844;-62
2022/07/25 04:05:34;;;;;;;2.75;2.50;;;;;;;;;;5076513;27;93505;-62
2022/07/25 04:08:00;;;;;;;2.42;2.30;;;;;;;;;;5076762;27;92476;-61
2022/07/25 04:10:26;;;;;;;2.55;2.35;;;;;;;;;;5076812;27;93057;-62
2022/07/25 04:12:53;;;;;;;2.30;2.20;;;;;;;;;;5079553;27;93562;-61
2022/07/25 04:15:19;;;;;;;2.85;2.20;;;;;;;;;;5076690;27;92364;-61
2022/07/25 04:17:45;;;;;;;2.50;2.30;;;;;;;;;;5076688;27;93220;-61
2022/07/25 04:20:12;;;;;;;2.40;2.20;;;;;;;;;;5076481;27;92438;-61
2022/07/25 04:22:38;;;;;;;2.70;2.35;;;;;;;;;;5076949;27;94385;-61
2022/07/25 04:25:11;;;;;;;2.97;2.67;;;;;;;;;;5075362;27;96204;-61
2022/07/25 04:27:37;;;;;;;2.38;2.17;;;;;;;;;;5058541;27;92505;-62
2022/07/25 04:30:04;;;;;;;2.50;2.40;;;;;;;;;;5076332;27;93197;-62
2022/07/25 04:32:30;;;;;;;2.65;2.45;;;;;;;;;;5075898;27;93843;-61
2022/07/25 04:34:56;;;;;;;2.58;2.38;;;;;;;;;;5079858;27;92488;-61
2022/07/25 04:37:23;;;;;;;2.72;2.53;;;;;;;;;;5076217;27;94273;-61
2022/07/25 04:39:49;;;;;;;2.70;2.50;;;;;;;;;;5058144;27;92412;-61
2022/07/25 04:42:15;;;;;;;2.78;2.58;;;;;;;;;;5075785;27;93476;-61
2022/07/25 04:44:42;;;;;;;2.45;2.25;;;;;;;;;;5075821;27;93452;-61
2022/07/25 04:47:08;;;;;;;2.50;2.30;;;;;;;;;;5076282;27;92448;-61
2022/07/25 04:49:34;;;;;;;2.80;2.55;;;;;;;;;;5074398;27;94799;-61
2022/07/25 04:52:00;;;;;;;3.58;2.22;;;;;;;;;;5076060;27;93883;-61
2022/07/25 04:54:27;;;;;;;3.00;2.38;;;;;;;;;;5076139;27;92444;-61
2022/07/25 04:56:53;;;;;;;2.67;2.47;;;;;;;;;;5079339;27;94198;-61
2022/07/25 04:59:19;;;;;;;2.90;2.45;;;;;;;;;;5075570;27;92454;-62
2022/07/25 05:01:46;;;;;;;2.97;2.70;;;;;;;;;;5076175;27;94011;-61
2022/07/25 05:04:12;;;;;;;3.03;2.83;;;;;;;;;;5075485;27;92353;-61
2022/07/25 05:06:38;;;;;;;2.88;2.67;;;;;;;;;;5076203;27;92013;-61
2022/07/25 05:09:05;;;;;;;3.10;2.90;;;;;;;;;;5076040;27;92467;-61
2022/07/25 05:11:31;;;;;;;2.90;2.70;;;;;;;;;;5075421;27;93168;-61
2022/07/25 05:13:57;;;;;;;3.13;2.83;;;;;;;;;;5073838;27;94878;-62
2022/07/25 05:16:23;;;;;;;3.10;2.80;;;;;;;;;;5075796;27;95699;-61
2022/07/25 05:18:50;;;;;;;3.20;2.90;;;;;;;;;;5078455;27;93636;-61
2022/07/25 05:21:16;;;;;;;2.80;2.60;;;;;;;;;;5075908;27;94196;-62
2022/07/25 05:23:43;;;;;;;2.75;2.55;;;;;;;;;;5075293;27;93546;-61
2022/07/25 05:26:09;;;;;;;3.03;2.70;;;;;;;;;;5075229;27;92455;-61
2022/07/25 05:28:35;;;;;;;2.80;2.60;;;;;;;;;;5075011;27;93502;-61
2022/07/25 05:31:01;;;;;;;2.95;2.75;;;;;;;;;;5075856;27;92848;-62
2022/07/25 05:33:28;;;;;;;3.22;2.92;;;;;;;;;;5075409;27;92551;-61
2022/07/25 05:35:54;;;;;;;3.20;2.88;;;;;;;;;;5075496;27;92940;-61
2022/07/25 05:38:21;;;;;;;3.35;3.05;;;;;;;;;;5073641;27;96822;-62
2022/07/25 05:40:47;;;;;;;2.90;2.70;;;;;;;;;;5078895;27;92459;-62
2022/07/25 05:43:14;;;;;;;3.35;3.05;;;;;;;;;;5056923;27;93284;-61
2022/07/25 05:45:40;;;;;;;2.92;2.72;;;;;;;;;;5075282;27;92377;-61
2022/07/25 05:48:07;;;;;;;3.20;3.00;;;;;;;;;;5075717;27;94169;-61
2022/07/25 05:50:35;;;;;;;3.15;2.95;;;;;;;;;;5075506;27;94814;-61
2022/07/25 05:53:01;;;;;;;3.00;2.80;;;;;;;;;;5075852;27;92376;-61
2022/07/25 05:55:27;;;;;;;3.00;2.80;;;;;;;;;;5079333;27;92970;-62
2022/07/25 05:57:54;;;;;;;2.88;2.67;;;;;;;;;;5078426;27;93611;-61
2022/07/25 06:00:20;;;;;;;3.25;3.05;;;;;;;;;;5081548;27;92432;-62
2022/07/25 06:02:46;;;;;;;2.85;2.65;;;;;;;;;;5076551;27;96153;-61
2022/07/25 06:05:13;;;;;;;3.30;3.00;;;;;;;;;;5078779;27;92448;-62
2022/07/25 06:07:40;;;;;;;3.13;2.92;;;;;;;;;;5078458;27;93477;-61
2022/07/25 06:10:06;;;;;;;3.50;3.20;;;;;;;;;;5060497;27;93479;-62
2022/07/25 06:12:32;;;;;;;3.30;3.10;;;;;;;;;;5078649;27;92565;-61
2022/07/25 06:15:02;;;;;;;3.17;2.97;;;;;;;;;;5078938;27;93360;-61
2022/07/25 06:17:29;;;;;;;3.03;2.83;;;;;;;;;;5078274;27;93960;-61
2022/07/25 06:19:58;;;;;;;3.70;3.40;;;;;;;;;;5079449;27;91994;-62
2022/07/25 06:22:24;;;;;;;3.60;3.28;;;;;;;;;;5081830;27;93573;-61
2022/07/25 06:24:50;;;;;;;3.55;3.25;;;;;;;;;;5077989;27;92408;-61
2022/07/25 06:27:16;;;;;;;3.70;3.40;;;;;;;;;;5077263;27;94846;-61
2022/07/25 06:29:47;;;;;;;5.15;3.40;;;;;;;;;;5078288;27;93590;-62
2022/07/25 06:32:13;;;;;;;4.80;3.08;;;;;;;;;;5078092;27;92524;-62
2022/07/25 06:34:40;;;;;;;3.60;3.30;;;;;;;;;;5078190;27;93227;-61
2022/07/25 06:37:06;;;;;;;3.50;3.30;;;;;;;;;;5078223;27;94538;-61
2022/07/25 06:39:32;;;;;;;3.08;2.80;;;;;;;;;;5078083;27;92333;-61
2022/07/25 06:41:59;;;;;;;3.80;3.38;;;;;;;;;;5078189;27;93535;-61
2022/07/25 06:44:25;;;;;;;3.80;3.50;;;;;;;;;;5081560;27;92560;-61
2022/07/25 06:46:51;;;;;;;3.70;3.30;;;;;;;;;;5060301;27;92415;-62
2022/07/25 06:49:18;;;;;;;3.45;3.15;;;;;;;;;;5078037;27;93747;-61
2022/07/25 06:51:44;;;;;;;3.10;2.90;;;;;;;;;;5076725;27;94864;-61
2022/07/25 06:54:12;;;;;;;3.80;3.50;;;;;;;;;;5078188;27;96545;-61
2022/07/25 06:56:38;;;;;;;3.92;3.25;;;;;;;;;;5077552;27;94054;-61
2022/07/25 06:59:05;;;;;;;3.42;3.13;;;;;;;;;;5078281;27;92372;-61
2022/07/25 07:01:31;;;;;;;3.67;3.38;;;;;;;;;;5077961;27;93187;-61
2022/07/25 07:03:57;;;;;;;3.20;3.00;;;;;;;;;;5077938;27;94527;-61
2022/07/25 07:06:24;;;;;;;3.53;3.22;;;;;;;;;;5079632;27;92428;-62
2022/07/25 07:08:50;;;;;;;3.45;3.15;;;;;;;;;;5077834;27;92723;-61
2022/07/25 07:11:16;;;;;;;6.25;3.60;;;;;;;;;;5077772;27;92444;-61
2022/07/25 07:13:43;;;;;;;3.85;3.55;;;;;;;;;;5077532;27;93188;-62
2022/07/25 07:16:09;;;;;;;3.22;3.03;;;;;;;;;;5076053;27;96149;-62
2022/07/25 07:18:36;;;;;;;3.35;3.15;;;;;;;;;;5059649;27;92382;-61
2022/07/25 07:21:03;;;;;;;6.22;3.63;;;;;;;;;;5077899;27;94331;-61
2022/07/25 07:23:31;;;;;;;3.80;3.50;;;;;;;;;;5059317;27;93374;-61
2022/07/25 07:25:58;;;;;;;3.70;3.40;;;;;;;;;;5077232;27;92447;-61
2022/07/25 07:28:24;;;;;;;3.90;3.60;;;;;;;;;;5062469;27;94279;-61
2022/07/25 07:30:50;;;;;;;3.58;3.17;;;;;;;;;;5077324;27;92554;-61
2022/07/25 07:33:37;;;;;;;4.03;3.30;;;;;;;;;;5077822;27;93210;-61
2022/07/25 07:36:03;;;;;;;3.17;2.83;;;;;;;;;;5077107;27;93944;-61
2022/07/25 07:38:29;;;;;;;4.68;3.33;;;;;;;;;;5076477;27;92536;-61
2022/07/25 07:40:56;;;;;;;3.88;3.47;;;;;;;;;;5075780;27;94751;-61
2022/07/25 07:43:22;;;;;;;3.67;3.38;;;;;;;;;;5076782;27;93464;-62
2022/07/25 07:45:55;;;;;;;3.78;3.22;;;;;;;;;;5077776;27;92375;-61
2022/07/25 07:48:21;;;;;;;3.50;3.15;;;;;;;;;;5080087;27;93311;-62
2022/07/25 07:50:48;;;;;;;4.85;3.60;;;;;;;;;;5077601;27;92404;-62
2022/07/25 07:53:14;;;;;;;3.35;3.05;;;;;;;;;;5059214;27;94082;-61
2022/07/25 07:55:44;;;;;;;3.67;3.33;;;;;;;;;;5058709;27;92405;-61
2022/07/25 07:58:11;;;;;;;3.40;3.15;;;;;;;;;;5077718;27;91729;-61
2022/07/25 08:00:40;;;;;;;3.63;3.33;;;;;;;;;;5077306;27;93357;-61
2022/07/25 08:03:07;;;;;;;3.13;2.92;;;;;;;;;;5076608;27;94468;-61
2022/07/25 08:05:38;;;;;;;3.20;2.90;;;;;;;;;;5075123;27;94878;-61
2022/07/25 08:08:06;;;;;;;3.58;3.28;;;;;;;;;;5076940;27;95709;-61
2022/07/25 08:10:35;;;;;;;3.05;2.78;;;;;;;;;;5080233;27;94845;-61
2022/07/25 08:13:02;;;;;;;3.50;2.83;;;;;;;;;;5076670;27;93267;-63
2022/07/25 08:15:29;;;;;;;2.85;2.65;;;;;;;;;;5077308;27;94506;-61
2022/07/25 08:17:55;;;;;;;3.05;2.72;;;;;;;;;;5075692;27;92458;-61
2022/07/25 08:20:22;;;;;;;3.20;2.88;;;;;;;;;;5076556;27;92921;-61
2022/07/25 08:23:04;;;;;;;2.88;2.67;;;;;;;;;;5076815;27;92605;-61
2022/07/25 08:25:31;;;;;;;3.10;2.90;;;;;;;;;;5076222;27;92392;-61
2022/07/25 08:27:58;;;;;;;2.95;2.67;;;;;;;;;;5076956;27;94161;-61
2022/07/25 08:30:24;;;;;;;3.22;2.70;;;;;;;;;;5075048;27;96836;-62
2022/07/25 08:33:04;;;;;;;2.83;2.63;;;;;;;;;;5079292;27;92618;-61
2022/07/25 08:35:31;;;;;;;3.05;2.60;;;;;;;;;;5076128;27;93461;-62
2022/07/25 08:37:58;;;;;;;2.75;2.55;;;;;;;;;;5076494;27;92400;-61
2022/07/25 08:40:25;;;;;;;2.80;2.53;;;;;;;;;;5076172;27;92394;-61
2022/07/25 08:42:53;;;;;;;3.30;2.50;;;;;;;;;;5076061;27;93635;-61
2022/07/25 08:45:20;;;;;;;3.15;2.85;;;;;;;;;;5076496;27;92415;-61
2022/07/25 08:47:48;;;;;;;2.90;2.42;;;;;;;;;;5076434;27;93141;-61
2022/07/25 08:50:17;;;;;;;2.70;2.50;;;;;;;;;;5076024;27;93462;-61
2022/07/25 08:52:44;;;;;;;2.85;2.50;;;;;;;;;;5075783;27;92441;-62
2022/07/25 08:55:13;;;;;;;2.67;2.47;;;;;;;;;;5059673;27;94892;-61
2022/07/25 08:57:42;;;;;;;;;;;;;;;;;;5076240;27;92370;-61
2022/07/25 09:00:10;;;;;;;2.30;2.20;;;;;;;;;;5076994;27;123630;-61
2022/07/25 09:02:37;;;;;;;2.50;2.30;;;;;;;;;;5075552;27;93473;-61
2022/07/25 09:05:04;;;;;;;2.70;2.25;;;;;;;;;;5076013;27;92454;-61
2022/07/25 09:07:30;;;;;;;2.47;2.28;;;;;;;;;;5075866;27;94377;-61
2022/07/25 09:09:56;;;;;;;2.42;2.13;;;;;;;;;;5075641;27;94001;-61
2022/07/25 09:12:27;;;;;;;2.40;2.20;;;;;;;;;;5076224;27;91723;-61
2022/07/25 09:14:53;;;;;;;2.70;2.50;;;;;;;;;;5075897;27;92550;-61
2022/07/25 09:17:21;;;;;;;2.58;2.35;;;;;;;;;;5098980;27;93709;-61
2022/07/25 09:19:53;;;;;;;2.92;2.45;;;;;;;;;;5094898;27;94814;-61
2022/07/25 09:22:19;;;;;;;2.90;2.40;;;;;;;;;;5096041;27;93456;-62
2022/07/25 09:24:46;;;;;;;3.92;1.92;;;;;;;;;;5095791;27;92516;-62
2022/07/25 09:27:13;;;;;;;2.30;2.10;;;;;;;;;;5096785;27;92395;-61
2022/07/25 09:29:41;;;;;;;2.20;1.92;;;;;;;;;;5095335;27;93577;-62
2022/07/25 09:32:15;;;;;;;2.20;1.80;;;;;;;;;;5096268;27;92410;-61
2022/07/25 09:34:43;;;;;;;2.25;2.05;;;;;;;;;;5096511;27;94334;-61
2022/07/25 09:37:11;;;;;;;2.03;1.83;;;;;;;;;;5095636;27;93220;-61
2022/07/25 09:39:47;;;;;;;2.55;1.85;;;;;;;;;;5099400;27;92458;-61
2022/07/25 09:42:18;;;;;;;2.20;2.00;;;;;;;;;;5095818;27;93726;-61
2022/07/25 09:44:55;;;;;;;2.85;2.13;;;;;;;;;;5093834;27;94858;-62
2022/07/25 09:47:22;;;;;;;3.05;1.92;;;;;;;;;;5075132;27;95568;-61
2022/07/25 09:49:49;;;;;;;2.42;1.73;;;;;;;;;;5075453;27;94471;-62
2022/07/25 09:52:16;;;;;;;1.88;1.70;;;;;;;;;;5075645;27;92419;-61
2022/07/25 09:54:42;;;;;;;4.68;1.90;;;;;;;;;;5075310;27;93520;-62
2022/07/25 09:57:09;;;;;;;1.80;1.70;;;;;;;;;;5074881;27;93417;-61
2022/07/25 09:59:35;;;;;;;2.38;1.63;;;;;;;;;;5077920;27;92551;-61
2022/07/25 10:02:02;;;;;;;1.70;1.60;;;;;;;;;;5075482;27;93093;-61
2022/07/25 10:04:38;;;;;;;1.85;1.50;;;;;;;;;;5074746;27;92421;-62
2022/07/25 10:07:04;;;;;;;1.60;1.50;;;;;;;;;;5075184;27;92433;-62
2022/07/25 10:09:30;;;;;;;1.63;1.52;;;;;;;;;;5073424;27;96866;-62
2022/07/25 10:12:04;;;;;;;2.00;1.45;;;;;;;;;;5075405;27;92722;-63
2022/07/25 10:14:32;;;;;;;1.85;1.70;;;;;;;;;;5075033;27;93331;-61
2022/07/25 10:17:00;;;;;;;1.85;1.55;;;;;;;;;;5074842;27;93491;-61
2022/07/25 10:19:39;;;;;;;3.25;1.83;;;;;;;;;;5075517;27;92576;-61
2022/07/25 10:22:11;;;;;;;2.03;1.67;;;;;;;;;;5077819;27;93422;-62
2022/07/25 10:24:38;;;;;;;2.13;1.70;;;;;;;;;;5074562;27;92515;-61
2022/07/25 10:27:06;;;;;;;4.90;1.80;;;;;;;;;;5075217;27;93117;-61
2022/07/25 10:29:34;;;;;;;2.13;1.80;;;;;;;;;;5075009;27;94449;-61
2022/07/25 10:32:10;;;;;;;2.60;1.70;;;;;;;;;;5074547;27;92459;-62
2022/07/25 10:34:37;;;;;;;2.75;1.60;;;;;;;;;;5073114;27;94769;-61
2022/07/25 10:37:20;;;;;;;1.70;1.48;;;;;;;;;;5074000;27;93357;-61
2022/07/25 10:39:49;;;;;;;1.60;1.23;;;;;;;;;;5074825;27;92850;-61
2022/07/25 10:42:16;;;;;;;1.60;1.50;;;;;;;;;;5078015;27;93557;-61
2022/07/25 10:44:43;;;;;;;2.05;1.70;;;;;;;;;;5081121;27;93994;-61
2022/07/25 10:47:11;;;;;;;2.95;1.80;;;;;;;;;;5078407;27;94567;-61
2022/07/25 10:49:41;;;;;;;3.25;1.58;;;;;;;;;;5077656;27;93522;-61
2022/07/25 10:52:28;;;;;;;2.80;1.65;;;;;;;;;;5063701;27;91784;-62
2022/07/25 10:54:58;;;;;;;2.75;1.50;;;;;;;;;;5060121;27;93539;-62
2022/07/25 10:57:25;;;;;;;2.22;1.50;;;;;;;;;;5077838;27;93904;-61
2022/07/25 11:00:04;;;;;;;2.05;1.40;;;;;;;;;;5076096;27;94841;-61
2022/07/25 11:02:31;;;;;;;2.22;1.70;;;;;;;;;;5077330;27;95681;-62
2022/07/25 11:05:00;;;;;;;1.70;1.50;;;;;;;;;;5077670;27;93606;-62
2022/07/25 11:07:27;;;;;;;3.30;1.50;;;;;;;;;;5080776;27;92438;-61
2022/07/25 11:09:57;;;;;;;2.85;1.63;;;;;;;;;;5077329;27;93962;-62
2022/07/25 11:12:24;;;;;;;1.92;1.50;;;;;;;;;;5077937;27;92391;-61
2022/07/25 11:14:54;;;;;;;2.38;1.75;;;;;;;;;;5077648;27;92901;-61
2022/07/25 11:17:22;;;;;;;3.88;1.50;;;;;;;;;;5098470;27;92783;-62
2022/07/25 11:20:08;;;;;;;4.78;1.70;;;;;;;;;;5098280;27;92449;-61
2022/07/25 11:22:34;;;;;;;3.03;1.60;;;;;;;;;;5098318;27;93089;-62
2022/07/25 11:25:01;;;;;;;1.67;1.50;;;;;;;;;;5095942;27;95828;-62
2022/07/25 11:27:32;;;;;;;1.40;1.30;;;;;;;;;;5098147;27;92439;-61
2022/07/25 11:30:08;;;;;;;2.90;1.30;;;;;;;;;;5083012;27;93599;-61
2022/07/25 11:32:38;;;;;;;2.13;1.50;;;;;;;;;;5098511;27;92349;-61
2022/07/25 11:35:05;;;;;;;1.95;1.55;;;;;;;;;;5097831;27;93310;-61
2022/07/25 11:37:36;;;;;;;2.10;1.40;;;;;;;;;;5097729;27;93787;-62
2022/07/25 11:40:03;;;;;;;2.58;1.60;;;;;;;;;;5098301;27;92405;-61
2022/07/25 11:42:38;;;;;;;2.40;1.40;;;;;;;;;;5098404;27;93206;-61
2022/07/25 11:45:14;;;;;;;1.65;1.20;;;;;;;;;;5078883;27;93563;-61
2022/07/25 11:47:41;;;;;;;3.00;1.52;;;;;;;;;;5097830;27;92393;-61
2022/07/25 11:50:09;;;;;;;2.45;1.42;;;;;;;;;;5077959;27;94765;-61
2022/07/25 11:52:36;;;;;;;1.73;1.40;;;;;;;;;;5082039;27;92317;-61
2022/07/25 11:55:04;;;;;;;4.20;1.67;;;;;;;;;;5098114;27;94177;-61
2022/07/25 11:57:32;;;;;;;4.13;1.60;;;;;;;;;;5097793;27;94529;-62
2022/07/25 11:59:59;;;;;;;3.50;1.63;;;;;;;;;;5091235;27;92440;-61
2022/07/25 12:02:27;;;;;;;4.53;1.48;;;;;;;;;;5076538;27;93069;-62
2022/07/25 12:04:54;;;;;;;3.20;1.70;;;;;;;;;;5075639;27;93511;-61
2022/07/25 12:07:20;;;;;;;3.50;1.60;;;;;;;;;;5077750;27;91689;-61
2022/07/25 12:09:56;;;;;;;2.58;1.63;;;;;;;;;;5077241;27;93784;-61
2022/07/25 12:12:22;;;;;;;3.42;1.50;;;;;;;;;;5080400;27;94505;-61
2022/07/25 12:14:50;;;;;;;2.58;1.65;;;;;;;;;;5074750;27;94884;-61
2022/07/25 12:17:17;;;;;;;3.58;1.52;;;;;;;;;;5076780;27;93454;-62
2022/07/25 12:19:46;;;;;;;2.83;1.50;;;;;;;;;;5076552;27;92428;-62
2022/07/25 12:22:12;;;;;;;4.50;1.38;;;;;;;;;;5076900;27;93310;-62
2022/07/25 12:24:38;;;;;;;2.25;1.55;;;;;;;;;;5076740;27;94496;-62
2022/07/25 12:27:05;;;;;;;3.05;1.50;;;;;;;;;;5076863;27;92480;-61
2022/07/25 12:29:31;;;;;;;4.45;1.80;;;;;;;;;;5076048;27;93216;-61
2022/07/25 12:31:57;;;;;;;2.72;1.38;;;;;;;;;;5076710;27;92763;-61
2022/07/25 12:34:24;;;;;;;3.35;1.60;;;;;;;;;;5079390;27;92732;-61
2022/07/25 12:36:51;;;;;;;5.07;1.92;;;;;;;;;;5075814;27;93479;-61
2022/07/25 12:39:18;;;;;;;3.30;1.58;;;;;;;;;;5074600;27;94814;-61
2022/07/25 12:41:44;;;;;;;3.60;1.60;;;;;;;;;;5076009;27;95576;-62
2022/07/25 12:44:10;;;;;;;2.92;1.60;;;;;;;;;;5075909;27;93532;-61
2022/07/25 12:46:39;;;;;;;4.55;1.60;;;;;;;;;;5076513;27;92393;-63
2022/07/25 12:49:05;;;;;;;1.45;1.35;;;;;;;;;;5076640;27;94278;-61
2022/07/25 12:51:32;;;;;;;2.63;1.40;;;;;;;;;;5076087;27;92485;-61
2022/07/25 12:53:58;;;;;;;3.47;1.90;;;;;;;;;;5075941;27;92398;-61
2022/07/25 12:56:24;;;;;;;3.20;1.90;;;;;;;;;;5078998;27;93463;-61
2022/07/25 12:58:51;;;;;;;4.35;1.50;;;;;;;;;;5076369;27;92512;-61
2022/07/25 13:01:17;;;;;;;3.75;1.83;;;;;;;;;;5075899;27;93554;-61
2022/07/25 13:03:43;;;;;;;8.68;2.35;;;;;;;;;;5073147;27;95919;-61
2022/07/25 13:06:10;;;;;;;4.28;1.80;;;;;;;;;;5075631;27;92520;-61
2022/07/25 13:08:36;;;;;;;7.05;1.92;;;;;;;;;;5075646;27;93492;-61
2022/07/25 13:11:02;;;;;;;4.30;2.08;;;;;;;;;;5075470;27;93450;-61
2022/07/25 13:13:29;;;;;;;3.78;1.50;;;;;;;;;;5075733;27;92765;-61
2022/07/25 13:15:55;;;;;;;2.13;1.48;;;;;;;;;;5075818;27;93229;-61
2022/07/25 13:18:21;;;;;;;6.47;1.52;;;;;;;;;;5078619;27;93868;-61
2022/07/25 13:20:48;;;;;;;4.00;1.83;;;;;;;;;;5076556;27;94485;-61
2022/07/25 13:23:14;;;;;;;4.38;1.85;;;;;;;;;;5075517;27;93310;-61
2022/07/25 13:25:46;;;;;;;2.33;1.67;;;;;;;;;;5075128;27;92480;-62
2022/07/25 13:28:12;;;;;;;4.05;1.77;;;;;;;;;;5055756;27;94714;-61
2022/07/25 13:30:39;;;;;;;5.82;1.58;;;;;;;;;;5057361;27;93989;-61
2022/07/25 13:33:05;;;;;;;5.50;1.80;;;;;;;;;;5075554;27;92410;-61
2022/07/25 13:35:32;;;;;;;3.38;1.50;;;;;;;;;;5075311;27;93224;-61
2022/07/25 13:38:04;;;;;;;4.05;1.65;;;;;;;;;;5075114;27;95919;-62
2022/07/25 13:40:31;;;;;;;3.35;1.60;;;;;;;;;;5078853;27;92312;-61
2022/07/25 13:42:57;;;;;;;4.45;1.90;;;;;;;;;;5075116;27;93822;-61
2022/07/25 13:45:23;;;;;;;3.47;1.73;;;;;;;;;;5076080;27;91672;-61
2022/07/25 13:47:50;;;;;;;5.28;1.77;;;;;;;;;;5075514;27;92547;-61
2022/07/25 13:50:36;;;;;;;2.55;1.50;;;;;;;;;;5075041;27;93729;-61
2022/07/25 13:53:04;;;;;;;3.10;1.60;;;;;;;;;;5073828;27;94811;-61
2022/07/25 13:55:31;;;;;;;5.43;1.40;;;;;;;;;;5075039;27;96151;-61
2022/07/25 13:57:57;;;;;;;4.75;1.85;;;;;;;;;;5074967;27;93529;-61
2022/07/25 14:00:24;;;;;;;5.28;1.90;;;;;;;;;;5075084;27;92372;-61
2022/07/25 14:02:50;;;;;;;2.60;1.40;;;;;;;;;;5077872;27;93487;-61
2022/07/25 14:05:17;;;;;;;4.43;1.73;;;;;;;;;;5074722;27;92269;-61
2022/07/25 14:07:43;;;;;;;3.50;1.60;;;;;;;;;;5057020;27;92949;-62
2022/07/25 14:10:09;;;;;;;3.92;2.08;;;;;;;;;;5075893;27;93815;-61
2022/07/25 14:12:38;;;;;;;5.10;1.50;;;;;;;;;;5074718;27;92519;-61
2022/07/25 14:15:05;;;;;;;6.25;2.08;;;;;;;;;;5076998;27;93189;-61
2022/07/25 14:17:32;;;;;;;4.95;1.73;;;;;;;;;;5076662;27;95882;-62
2022/07/25 14:19:58;;;;;;;4.95;1.70;;;;;;;;;;5078422;27;92644;-61
2022/07/25 14:22:25;;;;;;;3.92;1.60;;;;;;;;;;5081604;27;93191;-61
2022/07/25 14:24:51;;;;;;;5.00;1.48;;;;;;;;;;5078905;27;92389;-61
2022/07/25 14:27:17;;;;;;;7.65;1.95;;;;;;;;;;5078514;27;93323;-62
2022/07/25 14:29:44;;;;;;;6.22;1.88;;;;;;;;;;5078112;27;93421;-61
2022/07/25 14:32:10;;;;;;;2.50;1.40;;;;;;;;;;5078114;27;92637;-62
2022/07/25 14:34:36;;;;;;;4.00;1.45;;;;;;;;;;5078608;27;93147;-62
2022/07/25 14:37:04;;;;;;;4.97;1.60;;;;;;;;;;5077798;27;93682;-61
2022/07/25 14:39:30;;;;;;;4.60;1.63;;;;;;;;;;5078737;27;92369;-61
2022/07/25 14:41:58;;;;;;;1.70;1.15;;;;;;;;;;5076661;27;94746;-62
2022/07/25 14:44:26;;;;;;;5.00;1.50;;;;;;;;;;5081189;27;93478;-62